sensor_id;sensor_type;location;lat;lon;timestamp;P1;durP1;ratioP1;P2;durP2;ratioP2
66129;SDS011;52930;51.464;11.764;2022-09-30T00:02:18;13.47;;;5.70;;
66129;SDS011;52930;51.464;11.764;2022-09-30T00:04:44;13.03;;;6.10;;
66129;SDS011;52930;51.464;11.764;2022-09-30T00:07:10;14.10;;;6.30;;
66129;SDS011;52930;51.464;11.764;2022-09-30T00:09:35;13.87;;;5.67;;
66129;SDS011;52930;51.464;11.764;2022-09-30T00:12:01;11.07;;;5.90;;
66129;SDS011;52930;51.464;11.764;2022-09-30T00:14:26;13.77;;;6.03;;
66129;SDS011;52930;51.464;11.764;2022-09-30T00:16:51;12.00;;;5.87;;
66129;SDS011;52930;51.464;11.764;2022-09-30T00:19:17;13.50;;;6.40;;
66129;SDS011;52930;51.464;11.764;2022-09-30T00:21:42;13.00;;;5.90;;
66129;SDS011;52930;51.464;11.764;2022-09-30T00:24:08;11.98;;;6.05;;
66129;SDS011;52930;51.464;11.764;2022-09-30T00:26:34;13.43;;;6.03;;
66129;SDS011;52930;51.464;11.764;2022-09-30T00:29:00;12.27;;;6.00;;
66129;SDS011;52930;51.464;11.764;2022-09-30T00:31:27;12.73;;;5.90;;
66129;SDS011;52930;51.464;11.764;2022-09-30T00:33:54;10.38;;;5.35;;
66129;SDS011;52930;51.464;11.764;2022-09-30T00:38:58;12.75;;;5.60;;
66129;SDS011;52930;51.464;11.764;2022-09-30T00:41:24;12.97;;;6.10;;
66129;SDS011;52930;51.464;11.764;2022-09-30T00:43:50;10.90;;;5.28;;
66129;SDS011;52930;51.464;11.764;2022-09-30T00:49:04;10.52;;;5.43;;
66129;SDS011;52930;51.464;11.764;2022-09-30T00:51:36;11.70;;;5.75;;
66129;SDS011;52930;51.464;11.764;2022-09-30T00:54:05;12.70;;;6.03;;
66129;SDS011;52930;51.464;11.764;2022-09-30T00:56:35;12.40;;;6.00;;
66129;SDS011;52930;51.464;11.764;2022-09-30T00:59:07;12.23;;;6.00;;
66129;SDS011;52930;51.464;11.764;2022-09-30T01:01:36;12.90;;;6.00;;
66129;SDS011;52930;51.464;11.764;2022-09-30T01:04:04;11.73;;;5.65;;
66129;SDS011;52930;51.464;11.764;2022-09-30T01:06:33;11.75;;;5.32;;
66129;SDS011;52930;51.464;11.764;2022-09-30T01:08:59;11.13;;;5.53;;
66129;SDS011;52930;51.464;11.764;2022-09-30T01:11:26;11.65;;;5.70;;
66129;SDS011;52930;51.464;11.764;2022-09-30T01:13:53;13.20;;;5.93;;
66129;SDS011;52930;51.464;11.764;2022-09-30T01:16:30;12.60;;;6.07;;
66129;SDS011;52930;51.464;11.764;2022-09-30T01:43:53;14.83;;;7.10;;
66129;SDS011;52930;51.464;11.764;2022-09-30T01:46:36;13.95;;;6.90;;
66129;SDS011;52930;51.464;11.764;2022-09-30T01:54:28;14.05;;;6.28;;
66129;SDS011;52930;51.464;11.764;2022-09-30T01:57:05;14.23;;;6.63;;
66129;SDS011;52930;51.464;11.764;2022-09-30T01:59:35;13.30;;;6.40;;
66129;SDS011;52930;51.464;11.764;2022-09-30T02:02:17;13.82;;;6.63;;
66129;SDS011;52930;51.464;11.764;2022-09-30T02:04:49;12.57;;;5.85;;
66129;SDS011;52930;51.464;11.764;2022-09-30T02:07:20;11.32;;;5.75;;
66129;SDS011;52930;51.464;11.764;2022-09-30T02:10:08;11.33;;;5.77;;
66129;SDS011;52930;51.464;11.764;2022-09-30T02:12:43;11.70;;;5.53;;
66129;SDS011;52930;51.464;11.764;2022-09-30T02:15:14;11.85;;;5.55;;
66129;SDS011;52930;51.464;11.764;2022-09-30T02:18:11;12.57;;;5.68;;
66129;SDS011;52930;51.464;11.764;2022-09-30T02:20:37;12.32;;;6.07;;
66129;SDS011;52930;51.464;11.764;2022-09-30T02:23:05;14.53;;;6.80;;
66129;SDS011;52930;51.464;11.764;2022-09-30T02:25:35;14.25;;;5.97;;
66129;SDS011;52930;51.464;11.764;2022-09-30T02:28:07;13.07;;;5.85;;
66129;SDS011;52930;51.464;11.764;2022-09-30T02:30:37;14.05;;;7.00;;
66129;SDS011;52930;51.464;11.764;2022-09-30T02:33:06;14.43;;;6.57;;
66129;SDS011;52930;51.464;11.764;2022-09-30T02:35:36;16.20;;;6.70;;
66129;SDS011;52930;51.464;11.764;2022-09-30T02:38:09;16.75;;;7.15;;
66129;SDS011;52930;51.464;11.764;2022-09-30T02:40:42;14.65;;;6.53;;
66129;SDS011;52930;51.464;11.764;2022-09-30T02:43:12;14.48;;;6.30;;
66129;SDS011;52930;51.464;11.764;2022-09-30T02:45:45;14.15;;;6.28;;
66129;SDS011;52930;51.464;11.764;2022-09-30T02:48:19;15.17;;;6.63;;
66129;SDS011;52930;51.464;11.764;2022-09-30T02:50:53;18.58;;;7.68;;
66129;SDS011;52930;51.464;11.764;2022-09-30T02:53:45;16.77;;;7.72;;
66129;SDS011;52930;51.464;11.764;2022-09-30T02:56:18;14.38;;;7.13;;
66129;SDS011;52930;51.464;11.764;2022-09-30T02:58:46;15.57;;;7.28;;
66129;SDS011;52930;51.464;11.764;2022-09-30T03:01:12;17.60;;;7.40;;
66129;SDS011;52930;51.464;11.764;2022-09-30T03:03:42;16.17;;;6.47;;
66129;SDS011;52930;51.464;11.764;2022-09-30T03:06:10;14.65;;;7.13;;
66129;SDS011;52930;51.464;11.764;2022-09-30T03:08:36;13.80;;;6.83;;
66129;SDS011;52930;51.464;11.764;2022-09-30T03:11:02;14.82;;;7.03;;
66129;SDS011;52930;51.464;11.764;2022-09-30T03:13:52;16.53;;;7.03;;
66129;SDS011;52930;51.464;11.764;2022-09-30T03:22:03;15.25;;;6.85;;
66129;SDS011;52930;51.464;11.764;2022-09-30T03:27:29;16.90;;;7.57;;
66129;SDS011;52930;51.464;11.764;2022-09-30T03:30:08;17.60;;;7.45;;
66129;SDS011;52930;51.464;11.764;2022-09-30T03:35:48;16.88;;;7.75;;
66129;SDS011;52930;51.464;11.764;2022-09-30T03:38:35;19.50;;;7.47;;
66129;SDS011;52930;51.464;11.764;2022-09-30T03:41:21;17.90;;;8.23;;
66129;SDS011;52930;51.464;11.764;2022-09-30T03:44:01;16.92;;;7.50;;
66129;SDS011;52930;51.464;11.764;2022-09-30T03:49:07;17.88;;;7.63;;
66129;SDS011;52930;51.464;11.764;2022-09-30T03:51:36;19.08;;;8.25;;
66129;SDS011;52930;51.464;11.764;2022-09-30T03:54:03;18.57;;;7.73;;
66129;SDS011;52930;51.464;11.764;2022-09-30T03:56:31;20.40;;;8.82;;
66129;SDS011;52930;51.464;11.764;2022-09-30T03:58:57;15.88;;;7.63;;
66129;SDS011;52930;51.464;11.764;2022-09-30T04:01:22;16.57;;;7.43;;
66129;SDS011;52930;51.464;11.764;2022-09-30T04:03:49;19.20;;;8.00;;
66129;SDS011;52930;51.464;11.764;2022-09-30T04:06:19;17.10;;;7.57;;
66129;SDS011;52930;51.464;11.764;2022-09-30T04:08:46;16.60;;;7.77;;
66129;SDS011;52930;51.464;11.764;2022-09-30T04:11:12;18.83;;;8.35;;
66129;SDS011;52930;51.464;11.764;2022-09-30T04:13:37;19.20;;;8.27;;
66129;SDS011;52930;51.464;11.764;2022-09-30T04:16:03;19.95;;;7.95;;
66129;SDS011;52930;51.464;11.764;2022-09-30T04:18:32;17.00;;;7.67;;
66129;SDS011;52930;51.464;11.764;2022-09-30T04:20:59;17.35;;;7.60;;
66129;SDS011;52930;51.464;11.764;2022-09-30T04:23:24;15.43;;;6.97;;
66129;SDS011;52930;51.464;11.764;2022-09-30T04:25:53;18.17;;;8.40;;
66129;SDS011;52930;51.464;11.764;2022-09-30T04:28:19;16.52;;;7.68;;
66129;SDS011;52930;51.464;11.764;2022-09-30T04:30:45;17.63;;;8.70;;
66129;SDS011;52930;51.464;11.764;2022-09-30T04:33:10;15.27;;;6.93;;
66129;SDS011;52930;51.464;11.764;2022-09-30T04:35:37;15.47;;;7.10;;
66129;SDS011;52930;51.464;11.764;2022-09-30T04:38:03;15.98;;;7.47;;
66129;SDS011;52930;51.464;11.764;2022-09-30T04:40:31;16.77;;;7.50;;
66129;SDS011;52930;51.464;11.764;2022-09-30T04:42:59;16.95;;;7.38;;
66129;SDS011;52930;51.464;11.764;2022-09-30T04:45:25;16.13;;;7.47;;
66129;SDS011;52930;51.464;11.764;2022-09-30T04:47:50;18.90;;;8.17;;
66129;SDS011;52930;51.464;11.764;2022-09-30T04:50:15;19.03;;;8.43;;
66129;SDS011;52930;51.464;11.764;2022-09-30T04:52:41;17.60;;;7.37;;
66129;SDS011;52930;51.464;11.764;2022-09-30T04:55:07;16.55;;;7.80;;
66129;SDS011;52930;51.464;11.764;2022-09-30T04:57:33;16.50;;;7.40;;
66129;SDS011;52930;51.464;11.764;2022-09-30T04:59:59;15.50;;;7.33;;
66129;SDS011;52930;51.464;11.764;2022-09-30T05:02:25;18.23;;;7.55;;
66129;SDS011;52930;51.464;11.764;2022-09-30T05:04:50;18.57;;;8.00;;
66129;SDS011;52930;51.464;11.764;2022-09-30T05:07:15;19.07;;;7.40;;
66129;SDS011;52930;51.464;11.764;2022-09-30T05:09:41;18.23;;;7.83;;
66129;SDS011;52930;51.464;11.764;2022-09-30T05:12:06;16.07;;;7.03;;
66129;SDS011;52930;51.464;11.764;2022-09-30T05:14:32;16.27;;;7.18;;
66129;SDS011;52930;51.464;11.764;2022-09-30T05:16:58;19.60;;;7.60;;
66129;SDS011;52930;51.464;11.764;2022-09-30T05:19:23;16.23;;;6.65;;
66129;SDS011;52930;51.464;11.764;2022-09-30T05:21:49;16.48;;;7.10;;
66129;SDS011;52930;51.464;11.764;2022-09-30T05:24:16;15.93;;;7.13;;
66129;SDS011;52930;51.464;11.764;2022-09-30T05:26:41;18.63;;;7.23;;
66129;SDS011;52930;51.464;11.764;2022-09-30T05:29:08;14.97;;;7.20;;
66129;SDS011;52930;51.464;11.764;2022-09-30T05:31:33;18.58;;;7.93;;
66129;SDS011;52930;51.464;11.764;2022-09-30T05:33:59;18.93;;;8.40;;
66129;SDS011;52930;51.464;11.764;2022-09-30T05:36:25;19.50;;;8.77;;
66129;SDS011;52930;51.464;11.764;2022-09-30T05:38:51;18.23;;;8.70;;
66129;SDS011;52930;51.464;11.764;2022-09-30T05:41:16;23.92;;;9.88;;
66129;SDS011;52930;51.464;11.764;2022-09-30T05:43:44;23.15;;;10.10;;
66129;SDS011;52930;51.464;11.764;2022-09-30T05:46:10;23.47;;;9.87;;
66129;SDS011;52930;51.464;11.764;2022-09-30T05:48:36;21.48;;;9.10;;
66129;SDS011;52930;51.464;11.764;2022-09-30T05:51:01;18.27;;;8.07;;
66129;SDS011;52930;51.464;11.764;2022-09-30T05:53:27;21.13;;;9.15;;
66129;SDS011;52930;51.464;11.764;2022-09-30T05:55:55;17.90;;;8.67;;
66129;SDS011;52930;51.464;11.764;2022-09-30T05:58:20;18.77;;;8.27;;
66129;SDS011;52930;51.464;11.764;2022-09-30T06:00:46;21.25;;;9.60;;
66129;SDS011;52930;51.464;11.764;2022-09-30T06:03:12;18.70;;;8.40;;
66129;SDS011;52930;51.464;11.764;2022-09-30T06:05:39;17.35;;;7.60;;
66129;SDS011;52930;51.464;11.764;2022-09-30T06:08:04;16.80;;;8.50;;
66129;SDS011;52930;51.464;11.764;2022-09-30T06:10:31;18.85;;;8.20;;
66129;SDS011;52930;51.464;11.764;2022-09-30T06:12:58;18.13;;;8.18;;
66129;SDS011;52930;51.464;11.764;2022-09-30T06:15:23;16.70;;;7.60;;
66129;SDS011;52930;51.464;11.764;2022-09-30T06:17:52;16.58;;;7.82;;
66129;SDS011;52930;51.464;11.764;2022-09-30T06:20:18;17.90;;;7.47;;
66129;SDS011;52930;51.464;11.764;2022-09-30T06:22:43;17.77;;;7.23;;
66129;SDS011;52930;51.464;11.764;2022-09-30T06:25:09;21.40;;;7.70;;
66129;SDS011;52930;51.464;11.764;2022-09-30T06:27:35;13.35;;;7.03;;
66129;SDS011;52930;51.464;11.764;2022-09-30T06:30:06;12.88;;;6.57;;
66129;SDS011;52930;51.464;11.764;2022-09-30T06:32:32;12.57;;;6.13;;
66129;SDS011;52930;51.464;11.764;2022-09-30T06:34:57;12.40;;;6.55;;
66129;SDS011;52930;51.464;11.764;2022-09-30T06:37:23;11.20;;;5.40;;
66129;SDS011;52930;51.464;11.764;2022-09-30T06:39:49;12.30;;;5.85;;
66129;SDS011;52930;51.464;11.764;2022-09-30T06:42:15;10.03;;;5.47;;
66129;SDS011;52930;51.464;11.764;2022-09-30T06:44:46;11.80;;;5.30;;
66129;SDS011;52930;51.464;11.764;2022-09-30T06:47:13;10.55;;;5.55;;
66129;SDS011;52930;51.464;11.764;2022-09-30T06:49:38;11.63;;;5.93;;
66129;SDS011;52930;51.464;11.764;2022-09-30T06:52:04;11.15;;;5.88;;
66129;SDS011;52930;51.464;11.764;2022-09-30T06:54:30;11.60;;;5.90;;
66129;SDS011;52930;51.464;11.764;2022-09-30T06:56:57;10.60;;;5.47;;
66129;SDS011;52930;51.464;11.764;2022-09-30T06:59:23;10.75;;;5.60;;
66129;SDS011;52930;51.464;11.764;2022-09-30T07:01:49;16.42;;;6.43;;
66129;SDS011;52930;51.464;11.764;2022-09-30T07:04:14;11.77;;;5.90;;
66129;SDS011;52930;51.464;11.764;2022-09-30T07:06:40;12.05;;;6.53;;
66129;SDS011;52930;51.464;11.764;2022-09-30T07:09:06;14.03;;;6.27;;
66129;SDS011;52930;51.464;11.764;2022-09-30T07:11:33;11.00;;;6.30;;
66129;SDS011;52930;51.464;11.764;2022-09-30T07:13:59;12.43;;;5.45;;
66129;SDS011;52930;51.464;11.764;2022-09-30T07:16:24;10.77;;;5.63;;
66129;SDS011;52930;51.464;11.764;2022-09-30T07:18:50;11.70;;;6.10;;
66129;SDS011;52930;51.464;11.764;2022-09-30T07:21:16;12.18;;;6.60;;
66129;SDS011;52930;51.464;11.764;2022-09-30T07:23:42;10.38;;;5.95;;
66129;SDS011;52930;51.464;11.764;2022-09-30T07:26:13;10.65;;;5.63;;
66129;SDS011;52930;51.464;11.764;2022-09-30T07:28:40;10.38;;;5.57;;
66129;SDS011;52930;51.464;11.764;2022-09-30T07:31:08;9.90;;;5.68;;
66129;SDS011;52930;51.464;11.764;2022-09-30T07:33:37;12.18;;;5.60;;
66129;SDS011;52930;51.464;11.764;2022-09-30T07:36:03;9.68;;;4.93;;
66129;SDS011;52930;51.464;11.764;2022-09-30T07:38:32;9.48;;;4.85;;
66129;SDS011;52930;51.464;11.764;2022-09-30T07:41:04;9.45;;;5.53;;
66129;SDS011;52930;51.464;11.764;2022-09-30T07:43:37;10.35;;;5.25;;
66129;SDS011;52930;51.464;11.764;2022-09-30T07:48:32;10.27;;;5.53;;
66129;SDS011;52930;51.464;11.764;2022-09-30T07:51:05;10.77;;;5.57;;
66129;SDS011;52930;51.464;11.764;2022-09-30T07:53:30;9.30;;;5.23;;
66129;SDS011;52930;51.464;11.764;2022-09-30T07:55:56;11.25;;;5.57;;
66129;SDS011;52930;51.464;11.764;2022-09-30T07:58:27;11.77;;;5.87;;
66129;SDS011;52930;51.464;11.764;2022-09-30T08:00:52;10.27;;;5.82;;
66129;SDS011;52930;51.464;11.764;2022-09-30T08:03:18;10.57;;;5.57;;
66129;SDS011;52930;51.464;11.764;2022-09-30T08:05:43;9.90;;;5.60;;
66129;SDS011;52930;51.464;11.764;2022-09-30T08:08:10;9.93;;;5.63;;
66129;SDS011;52930;51.464;11.764;2022-09-30T08:10:38;9.20;;;4.57;;
66129;SDS011;52930;51.464;11.764;2022-09-30T08:13:04;10.10;;;5.37;;
66129;SDS011;52930;51.464;11.764;2022-09-30T08:15:29;10.05;;;5.43;;
66129;SDS011;52930;51.464;11.764;2022-09-30T08:17:55;9.20;;;4.87;;
66129;SDS011;52930;51.464;11.764;2022-09-30T08:20:20;10.47;;;5.43;;
66129;SDS011;52930;51.464;11.764;2022-09-30T08:22:46;10.37;;;5.63;;
66129;SDS011;52930;51.464;11.764;2022-09-30T08:25:11;11.02;;;5.65;;
66129;SDS011;52930;51.464;11.764;2022-09-30T08:27:37;10.10;;;5.20;;
66129;SDS011;52930;51.464;11.764;2022-09-30T08:30:03;11.70;;;6.07;;
66129;SDS011;52930;51.464;11.764;2022-09-30T08:32:29;10.35;;;5.28;;
66129;SDS011;52930;51.464;11.764;2022-09-30T08:34:55;11.07;;;5.63;;
66129;SDS011;52930;51.464;11.764;2022-09-30T08:37:20;12.60;;;6.00;;
66129;SDS011;52930;51.464;11.764;2022-09-30T08:39:46;10.82;;;5.80;;
66129;SDS011;52930;51.464;11.764;2022-09-30T08:42:25;9.47;;;5.40;;
66129;SDS011;52930;51.464;11.764;2022-09-30T08:45:02;10.75;;;5.97;;
66129;SDS011;52930;51.464;11.764;2022-09-30T08:53:30;10.60;;;5.53;;
66129;SDS011;52930;51.464;11.764;2022-09-30T08:56:04;12.40;;;5.87;;
66129;SDS011;52930;51.464;11.764;2022-09-30T08:58:32;12.77;;;6.15;;
66129;SDS011;52930;51.464;11.764;2022-09-30T09:01:01;10.10;;;5.60;;
66129;SDS011;52930;51.464;11.764;2022-09-30T09:03:29;11.23;;;5.15;;
66129;SDS011;52930;51.464;11.764;2022-09-30T09:05:59;10.77;;;5.45;;
66129;SDS011;52930;51.464;11.764;2022-09-30T09:14:04;10.60;;;5.40;;
66129;SDS011;52930;51.464;11.764;2022-09-30T09:21:56;11.80;;;5.47;;
66129;SDS011;52930;51.464;11.764;2022-09-30T09:24:36;9.73;;;5.30;;
66129;SDS011;52930;51.464;11.764;2022-09-30T09:27:11;10.02;;;5.20;;
66129;SDS011;52930;51.464;11.764;2022-09-30T09:32:34;9.73;;;4.55;;
66129;SDS011;52930;51.464;11.764;2022-09-30T09:35:00;7.27;;;4.00;;
66129;SDS011;52930;51.464;11.764;2022-09-30T09:54:22;7.85;;;4.82;;
66129;SDS011;52930;51.464;11.764;2022-09-30T09:56:49;7.85;;;4.90;;
66129;SDS011;52930;51.464;11.764;2022-09-30T09:59:17;9.02;;;4.63;;
66129;SDS011;52930;51.464;11.764;2022-09-30T10:01:47;10.43;;;4.73;;
66129;SDS011;52930;51.464;11.764;2022-09-30T10:04:21;7.85;;;4.22;;
66129;SDS011;52930;51.464;11.764;2022-09-30T10:06:57;7.75;;;4.28;;
66129;SDS011;52930;51.464;11.764;2022-09-30T10:09:26;8.68;;;4.70;;
66129;SDS011;52930;51.464;11.764;2022-09-30T10:14:34;9.90;;;4.30;;
66129;SDS011;52930;51.464;11.764;2022-09-30T10:17:02;7.35;;;3.90;;
66129;SDS011;52930;51.464;11.764;2022-09-30T10:19:29;7.10;;;4.13;;
66129;SDS011;52930;51.464;11.764;2022-09-30T10:22:16;7.88;;;3.80;;
66129;SDS011;52930;51.464;11.764;2022-09-30T10:24:42;7.95;;;4.13;;
66129;SDS011;52930;51.464;11.764;2022-09-30T10:29:54;8.57;;;3.15;;
66129;SDS011;52930;51.464;11.764;2022-09-30T10:32:20;7.03;;;3.50;;
66129;SDS011;52930;51.464;11.764;2022-09-30T10:34:45;7.28;;;3.70;;
66129;SDS011;52930;51.464;11.764;2022-09-30T10:37:20;7.17;;;3.00;;
66129;SDS011;52930;51.464;11.764;2022-09-30T10:40:05;6.35;;;3.00;;
66129;SDS011;52930;51.464;11.764;2022-09-30T10:42:33;6.72;;;3.22;;
66129;SDS011;52930;51.464;11.764;2022-09-30T10:45:04;5.30;;;2.70;;
66129;SDS011;52930;51.464;11.764;2022-09-30T10:47:34;6.30;;;3.47;;
66129;SDS011;52930;51.464;11.764;2022-09-30T10:52:37;6.28;;;3.28;;
66129;SDS011;52930;51.464;11.764;2022-09-30T10:55:24;8.77;;;3.63;;
66129;SDS011;52930;51.464;11.764;2022-09-30T10:58:00;7.25;;;2.17;;
66129;SDS011;52930;51.464;11.764;2022-09-30T11:00:44;4.20;;;1.85;;
66129;SDS011;52930;51.464;11.764;2022-09-30T11:03:13;7.17;;;2.50;;
66129;SDS011;52930;51.464;11.764;2022-09-30T11:05:41;5.32;;;1.70;;
66129;SDS011;52930;51.464;11.764;2022-09-30T11:08:09;5.80;;;2.03;;
66129;SDS011;52930;51.464;11.764;2022-09-30T11:18:37;5.63;;;1.63;;
66129;SDS011;52930;51.464;11.764;2022-09-30T11:21:32;5.53;;;2.50;;
66129;SDS011;52930;51.464;11.764;2022-09-30T11:46:05;7.07;;;2.50;;
66129;SDS011;52930;51.464;11.764;2022-09-30T11:51:25;6.88;;;2.08;;
66129;SDS011;52930;51.464;11.764;2022-09-30T11:59:10;4.28;;;1.23;;
66129;SDS011;52930;51.464;11.764;2022-09-30T12:12:08;5.22;;;1.20;;
66129;SDS011;52930;51.464;11.764;2022-09-30T12:17:18;3.42;;;1.20;;
66129;SDS011;52930;51.464;11.764;2022-09-30T12:19:48;4.90;;;1.40;;
66129;SDS011;52930;51.464;11.764;2022-09-30T12:22:17;3.70;;;1.38;;
66129;SDS011;52930;51.464;11.764;2022-09-30T12:24:46;4.43;;;1.60;;
66129;SDS011;52930;51.464;11.764;2022-09-30T12:49:34;4.50;;;1.25;;
66129;SDS011;52930;51.464;11.764;2022-09-30T12:52:03;4.13;;;1.00;;
66129;SDS011;52930;51.464;11.764;2022-09-30T12:57:01;7.03;;;1.00;;
66129;SDS011;52930;51.464;11.764;2022-09-30T12:59:32;3.83;;;0.93;;
66129;SDS011;52930;51.464;11.764;2022-09-30T13:02:00;6.50;;;1.00;;
66129;SDS011;52930;51.464;11.764;2022-09-30T13:12:38;4.30;;;0.95;;
66129;SDS011;52930;51.464;11.764;2022-09-30T13:17:51;2.83;;;0.98;;
66129;SDS011;52930;51.464;11.764;2022-09-30T13:23:31;3.83;;;0.80;;
66129;SDS011;52930;51.464;11.764;2022-09-30T13:25:59;3.53;;;0.90;;
66129;SDS011;52930;51.464;11.764;2022-09-30T13:28:26;5.13;;;1.00;;
66129;SDS011;52930;51.464;11.764;2022-09-30T13:32:00;3.30;;;0.82;;
66129;SDS011;52930;51.464;11.764;2022-09-30T13:33:44;5.57;;;1.30;;
66129;SDS011;52930;51.464;11.764;2022-09-30T13:36:43;3.90;;;1.08;;
66129;SDS011;52930;51.464;11.764;2022-09-30T13:39:24;3.30;;;0.98;;
66129;SDS011;52930;51.464;11.764;2022-09-30T13:47:39;4.95;;;1.38;;
66129;SDS011;52930;51.464;11.764;2022-09-30T13:50:12;6.35;;;1.00;;
66129;SDS011;52930;51.464;11.764;2022-09-30T13:52:42;3.15;;;0.70;;
66129;SDS011;52930;51.464;11.764;2022-09-30T13:55:20;3.57;;;0.77;;
66129;SDS011;52930;51.464;11.764;2022-09-30T14:03:14;4.07;;;1.15;;
66129;SDS011;52930;51.464;11.764;2022-09-30T14:08:33;3.30;;;0.90;;
66129;SDS011;52930;51.464;11.764;2022-09-30T14:16:47;5.05;;;0.90;;
66129;SDS011;52930;51.464;11.764;2022-09-30T14:22:22;3.63;;;0.83;;
66129;SDS011;52930;51.464;11.764;2022-09-30T14:24:51;5.35;;;1.10;;
66129;SDS011;52930;51.464;11.764;2022-09-30T14:27:20;4.00;;;1.02;;
66129;SDS011;52930;51.464;11.764;2022-09-30T14:29:52;2.90;;;1.00;;
66129;SDS011;52930;51.464;11.764;2022-09-30T14:32:29;4.90;;;0.97;;
66129;SDS011;52930;51.464;11.764;2022-09-30T14:34:57;4.47;;;0.70;;
66129;SDS011;52930;51.464;11.764;2022-09-30T14:39:52;4.65;;;1.13;;
66129;SDS011;52930;51.464;11.764;2022-09-30T14:42:22;5.17;;;1.33;;
66129;SDS011;52930;51.464;11.764;2022-09-30T14:44:49;3.95;;;1.00;;
66129;SDS011;52930;51.464;11.764;2022-09-30T14:47:16;4.15;;;1.00;;
66129;SDS011;52930;51.464;11.764;2022-09-30T14:49:42;4.28;;;1.10;;
66129;SDS011;52930;51.464;11.764;2022-09-30T14:52:31;5.40;;;1.10;;
66129;SDS011;52930;51.464;11.764;2022-09-30T14:55:16;5.20;;;1.20;;
66129;SDS011;52930;51.464;11.764;2022-09-30T14:57:46;3.80;;;0.82;;
66129;SDS011;52930;51.464;11.764;2022-09-30T15:00:23;6.77;;;1.00;;
66129;SDS011;52930;51.464;11.764;2022-09-30T15:02:52;3.72;;;1.20;;
66129;SDS011;52930;51.464;11.764;2022-09-30T15:05:17;4.88;;;1.13;;
66129;SDS011;52930;51.464;11.764;2022-09-30T15:07:43;5.37;;;0.90;;
66129;SDS011;52930;51.464;11.764;2022-09-30T15:10:15;3.33;;;1.00;;
66129;SDS011;52930;51.464;11.764;2022-09-30T15:12:43;3.95;;;1.05;;
66129;SDS011;52930;51.464;11.764;2022-09-30T15:15:26;3.80;;;1.08;;
66129;SDS011;52930;51.464;11.764;2022-09-30T15:17:52;4.63;;;1.00;;
66129;SDS011;52930;51.464;11.764;2022-09-30T15:22:47;5.47;;;1.38;;
66129;SDS011;52930;51.464;11.764;2022-09-30T15:25:14;3.38;;;1.00;;
66129;SDS011;52930;51.464;11.764;2022-09-30T15:27:40;11.60;;;0.97;;
66129;SDS011;52930;51.464;11.764;2022-09-30T15:32:37;3.72;;;1.00;;
66129;SDS011;52930;51.464;11.764;2022-09-30T15:35:07;4.83;;;1.20;;
66129;SDS011;52930;51.464;11.764;2022-09-30T15:37:37;4.57;;;1.20;;
66129;SDS011;52930;51.464;11.764;2022-09-30T15:40:02;4.20;;;1.37;;
66129;SDS011;52930;51.464;11.764;2022-09-30T15:42:52;6.60;;;1.63;;
66129;SDS011;52930;51.464;11.764;2022-09-30T15:47:58;5.90;;;1.20;;
66129;SDS011;52930;51.464;11.764;2022-09-30T15:50:45;6.53;;;1.75;;
66129;SDS011;52930;51.464;11.764;2022-09-30T15:55:52;24.35;;;10.15;;
66129;SDS011;52930;51.464;11.764;2022-09-30T16:00:51;7.10;;;3.03;;
66129;SDS011;52930;51.464;11.764;2022-09-30T16:03:26;6.30;;;2.97;;
66129;SDS011;52930;51.464;11.764;2022-09-30T16:05:53;8.75;;;3.78;;
66129;SDS011;52930;51.464;11.764;2022-09-30T16:08:42;8.57;;;4.05;;
66129;SDS011;52930;51.464;11.764;2022-09-30T16:11:15;15.38;;;6.22;;
66129;SDS011;52930;51.464;11.764;2022-09-30T16:13:45;9.55;;;3.60;;
66129;SDS011;52930;51.464;11.764;2022-09-30T16:16:14;8.27;;;3.60;;
66129;SDS011;52930;51.464;11.764;2022-09-30T16:18:44;8.05;;;3.47;;
66129;SDS011;52930;51.464;11.764;2022-09-30T16:21:22;8.23;;;1.70;;
66129;SDS011;52930;51.464;11.764;2022-09-30T16:23:52;4.35;;;1.73;;
66129;SDS011;52930;51.464;11.764;2022-09-30T16:28:48;4.65;;;1.77;;
66129;SDS011;52930;51.464;11.764;2022-09-30T16:31:16;4.38;;;2.08;;
66129;SDS011;52930;51.464;11.764;2022-09-30T16:33:42;6.28;;;2.30;;
66129;SDS011;52930;51.464;11.764;2022-09-30T16:36:08;7.25;;;2.00;;
66129;SDS011;52930;51.464;11.764;2022-09-30T16:38:34;5.27;;;1.83;;
66129;SDS011;52930;51.464;11.764;2022-09-30T16:41:00;6.93;;;1.50;;
66129;SDS011;52930;51.464;11.764;2022-09-30T16:43:27;4.50;;;1.65;;
66129;SDS011;52930;51.464;11.764;2022-09-30T16:45:54;7.03;;;1.25;;
66129;SDS011;52930;51.464;11.764;2022-09-30T16:48:20;4.10;;;1.30;;
66129;SDS011;52930;51.464;11.764;2022-09-30T16:50:49;3.87;;;1.50;;
66129;SDS011;52930;51.464;11.764;2022-09-30T16:53:18;4.07;;;1.35;;
66129;SDS011;52930;51.464;11.764;2022-09-30T16:55:44;4.23;;;1.40;;
66129;SDS011;52930;51.464;11.764;2022-09-30T16:58:09;4.53;;;1.50;;
66129;SDS011;52930;51.464;11.764;2022-09-30T17:00:37;5.43;;;1.80;;
66129;SDS011;52930;51.464;11.764;2022-09-30T17:03:06;4.57;;;1.65;;
66129;SDS011;52930;51.464;11.764;2022-09-30T17:05:33;8.80;;;3.95;;
66129;SDS011;52930;51.464;11.764;2022-09-30T17:07:58;10.60;;;3.10;;
66129;SDS011;52930;51.464;11.764;2022-09-30T17:12:53;7.33;;;2.87;;
66129;SDS011;52930;51.464;11.764;2022-09-30T17:15:20;5.95;;;2.63;;
66129;SDS011;52930;51.464;11.764;2022-09-30T17:17:46;7.10;;;2.72;;
66129;SDS011;52930;51.464;11.764;2022-09-30T17:20:12;6.45;;;2.90;;
66129;SDS011;52930;51.464;11.764;2022-09-30T17:22:38;6.68;;;3.10;;
66129;SDS011;52930;51.464;11.764;2022-09-30T17:25:04;5.67;;;2.70;;
66129;SDS011;52930;51.464;11.764;2022-09-30T17:27:29;8.43;;;2.47;;
66129;SDS011;52930;51.464;11.764;2022-09-30T17:29:55;6.43;;;2.90;;
66129;SDS011;52930;51.464;11.764;2022-09-30T17:32:20;11.70;;;6.83;;
66129;SDS011;52930;51.464;11.764;2022-09-30T17:34:45;32.50;;;17.17;;
66129;SDS011;52930;51.464;11.764;2022-09-30T17:37:11;14.10;;;6.20;;
66129;SDS011;52930;51.464;11.764;2022-09-30T17:39:37;8.52;;;3.83;;
66129;SDS011;52930;51.464;11.764;2022-09-30T17:42:02;10.57;;;4.23;;
66129;SDS011;52930;51.464;11.764;2022-09-30T17:44:46;8.13;;;3.42;;
66129;SDS011;52930;51.464;11.764;2022-09-30T17:47:12;7.40;;;3.72;;
66129;SDS011;52930;51.464;11.764;2022-09-30T17:49:37;7.18;;;3.53;;
66129;SDS011;52930;51.464;11.764;2022-09-30T17:52:03;7.27;;;3.10;;
66129;SDS011;52930;51.464;11.764;2022-09-30T17:54:28;5.83;;;2.90;;
66129;SDS011;52930;51.464;11.764;2022-09-30T17:56:54;5.53;;;2.93;;
66129;SDS011;52930;51.464;11.764;2022-09-30T17:59:21;6.28;;;3.45;;
66129;SDS011;52930;51.464;11.764;2022-09-30T18:01:50;6.82;;;3.33;;
66129;SDS011;52930;51.464;11.764;2022-09-30T18:04:15;6.40;;;3.03;;
66129;SDS011;52930;51.464;11.764;2022-09-30T18:06:42;6.68;;;3.58;;
66129;SDS011;52930;51.464;11.764;2022-09-30T18:09:08;5.97;;;3.67;;
66129;SDS011;52930;51.464;11.764;2022-09-30T18:11:33;8.30;;;3.35;;
66129;SDS011;52930;51.464;11.764;2022-09-30T18:13:59;9.27;;;3.50;;
66129;SDS011;52930;51.464;11.764;2022-09-30T18:16:26;7.75;;;3.42;;
66129;SDS011;52930;51.464;11.764;2022-09-30T18:18:58;7.00;;;3.60;;
66129;SDS011;52930;51.464;11.764;2022-09-30T18:21:24;7.47;;;3.92;;
66129;SDS011;52930;51.464;11.764;2022-09-30T18:23:50;7.97;;;3.53;;
66129;SDS011;52930;51.464;11.764;2022-09-30T18:26:16;8.57;;;4.05;;
66129;SDS011;52930;51.464;11.764;2022-09-30T18:28:41;10.43;;;3.80;;